Time;durP1;ratioP1;P1;durP2;ratioP2;P2;SDS_P1;SDS_P2;PMS_P1;PMS_P2;Temp;Humidity;BMP_temperature;BMP_pressure;BME280_temperature;BME280_humidity;BME280_pressure;Samples;Min_cycle;Max_cycle;Signal;HPM_P1;HPM_P2
2024/01/31 00:03:49;;;;;;;137.37;60.23;;;;;;;-143.21;66.95;75486.63;4893319;29;20688;-89
2024/01/31 00:06:31;;;;;;;143.87;60.20;;;;;;;-143.21;66.21;75482.66;4890218;29;20211;-91
2024/01/31 00:09:09;;;;;;;141.40;58.20;;;;;;;-143.21;66.58;75496.56;4896156;29;20207;-90
2024/01/31 00:11:45;;;;;;;110.43;49.27;;;;;;;-143.21;66.75;75494.59;4899125;29;20196;-91
2024/01/31 00:14:13;;;;;;;106.50;48.70;;;;;;;-143.21;66.39;75502.53;4898493;29;20218;-90
2024/01/31 00:16:40;;;;;;;108.97;46.83;;;;;;;-143.21;66.70;75498.56;4895761;29;20851;-90
2024/01/31 00:19:16;;;;;;;107.63;46.20;;;;;;;-143.21;66.69;75508.47;4902143;23;20610;-90
2024/01/31 00:21:46;;;;;;;117.30;54.60;;;;;;;-143.21;66.69;75506.50;4888833;29;20206;-90
2024/01/31 00:24:22;;;;;;;124.73;52.03;;;;;;;-143.21;66.74;75494.59;4896157;29;20231;-89
2024/01/31 00:26:48;;;;;;;106.37;49.73;;;;;;;-143.21;67.08;75490.63;4897924;29;20192;-89
2024/01/31 00:29:15;;;;;;;121.47;52.67;;;;;;;-143.21;66.98;75484.66;4892933;29;20717;-90
2024/01/31 00:31:42;;;;;;;120.90;51.67;;;;;;;-143.21;67.16;75490.63;4890807;29;20199;-89
2024/01/31 00:34:10;;;;;;;109.40;47.00;;;;;;;-143.21;66.88;75490.63;4891918;29;20272;-91
2024/01/31 00:36:37;;;;;;;110.70;48.43;;;;;;;-143.21;66.59;75488.63;4918982;23;20263;-91
2024/01/31 00:42:21;;;;;;;115.50;47.30;;;;;;;-143.21;66.41;75488.63;4898367;29;20210;-89
2024/01/31 00:44:59;;;;;;;112.80;46.47;;;;;;;-143.21;66.58;75490.63;4893550;23;20234;-90
2024/01/31 00:47:26;;;;;;;109.87;46.60;;;;;;;-143.21;66.46;75482.66;4893209;29;20757;-90
2024/01/31 00:50:02;;;;;;;105.10;46.10;;;;;;;-143.21;66.70;75538.25;4887969;29;20232;-91
2024/01/31 00:52:38;;;;;;;102.40;43.90;;;;;;;-143.21;67.70;75556.13;4894029;29;20202;-91
2024/01/31 00:55:06;;;;;;;89.60;40.07;;;;;;;-143.21;68.28;75554.13;4905368;23;20302;-91
2024/01/31 00:57:32;;;;;;;101.90;44.27;;;;;;;-143.21;68.19;75546.19;4908965;23;20238;-91
2024/01/31 01:00:18;;;;;;;72.80;34.13;;;;;;;-143.21;68.32;75530.31;4892846;29;20204;-91
2024/01/31 01:02:45;;;;;;;95.97;44.73;;;;;;;-143.21;68.37;75538.25;4914338;23;20227;-92
2024/01/31 01:05:13;;;;;;;123.23;50.33;;;;;;;-143.21;68.34;75538.25;4886658;29;20334;-89
2024/01/31 01:07:49;;;;;;;115.97;48.03;;;;;;;-143.21;68.31;75526.34;4881383;29;20245;-91
2024/01/31 01:10:19;;;;;;;124.37;50.03;;;;;;;-143.21;68.16;75530.31;4882585;29;20199;-90
2024/01/31 01:15:37;;;;;;;;;;;;;;;;;;;;;
2024/01/31 01:18:05;;;;;;;101.90;44.50;;;;;;;-143.21;67.92;75510.47;4889761;29;20207;-89
2024/01/31 01:20:40;;;;;;;102.87;43.73;;;;;;;-143.21;67.78;75510.47;4878398;29;20201;-91
2024/01/31 01:23:07;;;;;;;108.27;40.97;;;;;;;-143.21;67.42;75508.47;4881147;29;20311;-90
2024/01/31 01:25:34;;;;;;;83.80;38.03;;;;;;;-143.21;67.71;75518.41;4883217;29;20201;-91
2024/01/31 01:28:01;;;;;;;86.77;37.10;;;;;;;-143.21;67.79;75520.38;4894324;29;20203;-90
2024/01/31 01:30:34;;;;;;;94.73;40.17;;;;;;;-143.21;67.73;75516.41;4905875;29;20298;-89
2024/01/31 01:33:01;;;;;;;92.77;39.73;;;;;;;-143.21;67.63;75518.41;4885834;29;20200;-93
2024/01/31 01:38:09;;;;;;;83.83;36.17;;;;;;;-143.21;67.38;75518.41;4904053;23;20299;-90
2024/01/31 01:43:32;;;;;;;68.63;31.33;;;;;;;-143.21;67.05;75518.41;4909396;23;20588;-90
2024/01/31 01:46:25;;;;;;;58.30;27.17;;;;;;;-143.21;67.02;75522.38;4917057;29;20298;-91
2024/01/31 01:49:11;;;;;;;70.87;32.73;;;;;;;-143.21;66.58;75522.38;4908180;23;20233;-91
2024/01/31 01:51:38;;;;;;;80.37;33.73;;;;;;;-143.21;66.73;75532.28;4904583;29;20211;-91
2024/01/31 01:54:06;;;;;;;70.90;32.10;;;;;;;-143.21;66.78;75538.25;4902687;29;20222;-91
2024/01/31 01:56:34;;;;;;;73.17;32.07;;;;;;;-143.21;66.30;75526.34;4899116;23;20240;-91
2024/01/31 01:59:02;;;;;;;63.17;28.50;;;;;;;-143.21;66.75;75528.31;4884552;29;20204;-92
2024/01/31 02:01:28;;;;;;;60.60;27.87;;;;;;;-143.21;66.98;75544.22;4881416;29;20228;-90
2024/01/31 02:06:48;;;;;;;57.63;27.07;;;;;;;-143.21;66.57;75532.28;4883532;29;20207;-91
2024/01/31 02:09:26;;;;;;;55.77;26.27;;;;;;;-143.21;66.86;75530.31;4910170;23;20232;-90
2024/01/31 02:11:53;;;;;;;61.63;27.10;;;;;;;-143.21;66.91;75540.25;4900787;29;20207;-89
2024/01/31 02:14:20;;;;;;;57.23;26.23;;;;;;;-143.21;66.82;75528.31;4905623;29;20679;-90
2024/01/31 02:16:59;;;;;;;;;;;;;;;;;;;;;
2024/01/31 02:19:43;;;;;;;52.83;24.47;;;;;;;-143.21;66.92;75538.25;4906555;23;20326;-89
2024/01/31 02:22:17;;;;;;;52.37;22.90;;;;;;;-143.21;66.53;75532.28;4910014;23;20239;-90
2024/01/31 02:24:44;;;;;;;47.40;22.83;;;;;;;-143.21;66.67;75528.31;4894464;23;20327;-90
2024/01/31 02:30:06;;;;;;;48.43;22.30;;;;;;;-143.21;66.97;75524.34;4859810;29;20237;-91
2024/01/31 02:32:37;;;;;;;43.93;22.23;;;;;;;-143.21;66.90;75530.31;4894523;29;20263;-91
2024/01/31 02:35:15;;;;;;;53.03;22.70;;;;;;;-143.21;66.81;75530.31;4883997;29;20296;-90
2024/01/31 02:38:01;;;;;;;49.43;22.20;;;;;;;-143.21;66.69;75546.19;4880380;29;20651;-90
2024/01/31 02:40:40;;;;;;;45.10;23.23;;;;;;;-143.21;67.22;75556.13;4882202;29;20406;-92
2024/01/31 02:43:06;;;;;;;44.93;23.20;;;;;;;-143.21;67.69;75558.09;4887461;23;20208;-90
2024/01/31 02:45:41;;;;;;;49.63;24.33;;;;;;;-143.21;67.63;75560.09;4891732;29;20231;-91
2024/01/31 02:48:17;;;;;;;52.00;24.70;;;;;;;-143.21;67.65;75560.09;4875578;29;20246;-91
2024/01/31 02:50:44;;;;;;;50.33;24.10;;;;;;;-143.21;67.77;75560.09;4882945;29;20226;-92
2024/01/31 02:53:12;;;;;;;51.37;25.63;;;;;;;-143.21;67.67;75552.16;4883053;29;20204;-92
2024/01/31 02:55:39;;;;;;;57.70;25.63;;;;;;;-143.21;67.49;75554.13;4899744;23;20223;-91
2024/01/31 02:58:15;;;;;;;52.27;26.27;;;;;;;-143.21;67.49;75550.16;4899717;29;20218;-92
2024/01/31 03:16:50;;;;;;;56.00;27.47;;;;;;;-143.21;67.71;75558.09;4875173;23;20239;-92
2024/01/31 03:19:21;;;;;;;52.47;24.53;;;;;;;-143.21;67.47;75566.03;4873484;29;20224;-90
2024/01/31 03:25:19;;;;;;;56.93;27.60;;;;;;;-143.21;67.32;75558.09;4887356;23;20771;-92
2024/01/31 03:28:14;;;;;;;61.70;28.33;;;;;;;-143.21;67.36;75562.06;4905181;23;20238;-92
2024/01/31 03:36:21;;;;;;;61.10;26.63;;;;;;;-143.21;67.25;75562.06;4897479;29;20207;-91
2024/01/31 03:38:51;;;;;;;55.07;27.97;;;;;;;-143.21;67.17;75568.03;4896515;29;20311;-91
2024/01/31 03:41:21;;;;;;;55.10;27.97;;;;;;;-143.21;67.34;75564.06;4904183;23;20228;-91
2024/01/31 03:43:54;;;;;;;62.67;29.03;;;;;;;-143.21;67.17;75570.00;4891105;29;20224;-91
2024/01/31 03:46:21;;;;;;;54.23;25.93;;;;;;;-143.21;67.47;75575.97;4880226;29;20287;-91
2024/01/31 03:48:54;;;;;;;56.87;26.10;;;;;;;-143.21;67.99;75583.91;4891724;29;20196;-90
2024/01/31 03:51:21;;;;;;;54.23;26.37;;;;;;;-143.21;67.79;75581.91;4877016;29;20216;-90
2024/01/31 03:56:18;;;;;;;60.00;27.40;;;;;;;-143.21;67.29;75575.97;4881190;29;20280;-93
2024/01/31 03:58:45;;;;;;;63.33;27.03;;;;;;;-143.21;67.25;75587.88;4885000;29;20214;-91
2024/01/31 04:01:17;;;;;;;76.40;30.70;;;;;;;-143.21;67.14;75589.88;4857908;29;20203;-90
2024/01/31 04:03:56;;;;;;;64.27;28.27;;;;;;;-143.21;67.19;75591.84;4888270;29;20341;-90
2024/01/31 04:06:23;;;;;;;64.80;27.63;;;;;;;-143.21;67.11;75597.81;4883316;29;20243;-90
2024/01/31 04:08:50;;;;;;;69.13;32.07;;;;;;;-143.21;67.45;75605.75;4875899;29;20200;-90
2024/01/31 04:11:17;;;;;;;81.83;34.57;;;;;;;-143.21;67.42;75609.72;4872534;29;20208;-91
2024/01/31 04:13:55;;;;;;;;;;;;;;;;;;;;;
2024/01/31 04:24:14;;;;;;;55.55;27.13;;;;;;;-143.21;67.37;75627.56;4907491;23;20246;-91
2024/01/31 04:29:25;;;;;;;53.37;25.77;;;;;;;-143.21;67.93;75639.50;4899153;29;20226;-90
2024/01/31 04:31:53;;;;;;;53.63;24.90;;;;;;;-143.21;67.71;75629.56;4907044;29;20211;-91
2024/01/31 04:34:29;;;;;;;55.30;25.50;;;;;;;-143.21;67.37;75637.50;4903382;23;20330;-91
2024/01/31 04:37:13;;;;;;;51.27;23.60;;;;;;;-143.21;67.71;75629.56;4901547;23;20721;-91
2024/01/31 04:39:40;;;;;;;51.10;22.87;;;;;;;-143.21;67.89;75631.53;4886021;23;20310;-90
2024/01/31 04:42:07;;;;;;;59.63;27.50;;;;;;;-143.21;67.89;75639.50;4868694;29;20652;-91
2024/01/31 04:44:34;;;;;;;69.33;32.27;;;;;;;-143.21;68.19;75637.50;4872629;29;20220;-91
2024/01/31 04:47:04;;;;;;;63.37;27.87;;;;;;;-143.21;68.27;75637.50;4880347;23;20191;-90
2024/01/31 04:49:34;;;;;;;56.87;27.13;;;;;;;-143.21;68.39;75637.50;4884663;29;20613;-91
2024/01/31 04:52:00;;;;;;;66.90;30.47;;;;;;;-143.21;68.22;75637.50;4899926;29;20208;-90
2024/01/31 04:54:28;;;;;;;56.57;27.00;;;;;;;-143.21;68.21;75639.50;4895187;29;20280;-90
2024/01/31 04:56:55;;;;;;;62.47;28.13;;;;;;;-143.21;68.32;75647.44;4895667;29;20211;-90
2024/01/31 04:59:21;;;;;;;74.33;36.50;;;;;;;-143.21;68.48;75639.50;4883872;29;20263;-88
2024/01/31 05:01:48;;;;;;;85.77;39.27;;;;;;;-143.21;68.37;75641.47;4876189;29;20866;-91
2024/01/31 05:04:21;;;;;;;85.10;39.40;;;;;;;-143.21;68.34;75635.53;4882344;29;20249;-89
2024/01/31 05:06:47;;;;;;;92.83;38.97;;;;;;;-143.21;67.93;75633.53;4889788;29;20202;-91
2024/01/31 05:09:14;;;;;;;81.40;36.90;;;;;;;-143.21;68.21;75627.56;4878127;29;20272;-89
2024/01/31 05:11:41;;;;;;;60.00;26.63;;;;;;;-143.21;68.16;75621.63;4884667;29;20208;-90
2024/01/31 05:14:09;;;;;;;58.90;25.63;;;;;;;-143.21;68.16;75625.59;4889282;29;20203;-90
2024/01/31 05:16:40;;;;;;;48.77;22.37;;;;;;;-143.21;68.24;75633.53;4901470;29;20525;-90
2024/01/31 05:19:11;;;;;;;50.37;23.30;;;;;;;-143.21;68.20;75627.56;4910487;29;20207;-89
2024/01/31 05:21:44;;;;;;;46.50;21.83;;;;;;;-143.21;68.19;75629.56;4886891;29;20252;-89
2024/01/31 05:24:11;;;;;;;52.57;23.57;;;;;;;-143.21;67.87;75627.56;4879509;29;20231;-89
2024/01/31 05:26:38;;;;;;;52.43;25.03;;;;;;;-143.21;68.10;75643.47;4869120;29;20665;-89
2024/01/31 05:29:15;;;;;;;;;;;;;;;;;;;;;
2024/01/31 05:31:55;;;;;;;50.70;22.13;;;;;;;-143.21;68.03;75649.41;4874081;29;20229;-89
2024/01/31 05:34:22;;;;;;;49.97;25.93;;;;;;;-143.21;68.32;75655.38;4895424;29;20233;-90
2024/01/31 05:40:02;;;;;;;50.87;22.77;;;;;;;-143.21;68.05;75659.34;4885699;29;20215;-88
2024/01/31 05:42:29;;;;;;;42.40;20.60;;;;;;;-143.21;67.93;75673.22;4907480;23;21253;-88
2024/01/31 05:45:09;;;;;;;44.27;21.87;;;;;;;-143.21;67.87;75669.25;4908499;29;20597;-93
2024/01/31 05:48:05;;;;;;;48.23;22.37;;;;;;;-143.21;68.02;75671.25;4901487;23;20323;-93
2024/01/31 05:56:15;;;;;;;45.27;19.87;;;;;;;-143.21;67.70;75675.22;4877448;23;20239;-92
2024/01/31 06:01:43;;;;;;;48.73;20.93;;;;;;;-143.21;67.84;75695.06;4907933;23;20250;-89
2024/01/31 06:04:20;;;;;;;;;;;;;;;;;;;;;
2024/01/31 06:06:50;;;;;;;43.40;20.87;;;;;;;-143.21;68.09;75695.06;4894696;29;20228;-90
2024/01/31 06:09:18;;;;;;;44.47;21.37;;;;;;;-143.21;68.02;75691.09;4897643;29;20203;-90
2024/01/31 06:11:45;;;;;;;48.90;20.90;;;;;;;-143.21;68.13;75687.13;4895823;29;20233;-91
2024/01/31 06:14:19;;;;;;;47.87;21.20;;;;;;;-143.21;67.71;75683.16;4895150;29;20212;-89
2024/01/31 06:16:54;;;;;;;47.73;22.43;;;;;;;-143.21;68.09;75689.13;4897561;29;20210;-89
2024/01/31 06:19:29;;;;;;;57.33;24.17;;;;;;;-143.21;67.98;75695.06;4918571;29;20199;-90
2024/01/31 06:21:58;;;;;;;53.07;26.10;;;;;;;-143.21;67.36;75685.16;4912377;29;20596;-91
2024/01/31 06:24:26;;;;;;;67.50;27.37;;;;;;;-143.21;67.24;75689.13;4913729;29;20210;-90
2024/01/31 06:29:42;;;;;;;59.17;27.13;;;;;;;-143.21;67.61;75695.06;5377799;23;20226;31
2024/01/31 06:35:41;;;;;;;56.43;26.37;;;;;;;-143.21;68.18;75685.16;4854595;24;20318;-91
2024/01/31 06:38:40;;;;;;;57.13;26.20;;;;;;;-143.21;68.45;75683.16;4890479;23;21039;-89
2024/01/31 06:44:55;;;;;;;47.83;22.63;;;;;;;-143.21;68.07;75673.22;4920263;23;20341;-90
2024/01/31 06:47:22;;;;;;;52.20;23.87;;;;;;;-143.21;67.51;75661.31;4902802;29;20199;-88
2024/01/31 06:49:57;;;;;;;54.33;24.60;;;;;;;-143.21;67.58;75653.38;4913469;29;20240;-91
2024/01/31 06:52:24;;;;;;;50.50;24.13;;;;;;;-143.21;67.40;75657.34;4901124;29;20653;-90
2024/01/31 06:54:51;;;;;;;57.70;24.93;;;;;;;-143.21;67.66;75651.41;4906177;29;20259;-91
2024/01/31 07:00:03;;;;;;;61.27;27.40;;;;;;;-143.21;67.37;75637.50;4907540;29;20211;-89
2024/01/31 07:02:37;;;;;;;60.63;27.50;;;;;;;-143.21;67.56;75635.53;4897275;29;20203;-89
2024/01/31 07:05:05;;;;;;;52.03;26.13;;;;;;;-143.21;67.56;75631.53;4893393;29;20215;-89
2024/01/31 07:07:35;;;;;;;63.23;27.37;;;;;;;-143.21;67.52;75627.56;4906129;29;20275;-90
2024/01/31 07:10:16;;;;;;;49.60;23.33;;;;;;;-143.21;67.65;75613.69;4907255;29;20215;-89
2024/01/31 07:12:58;;;;;;;;;;;;;;;;;;;;;
2024/01/31 07:15:29;;;;;;;50.27;25.60;;;;;;;-143.21;67.44;75617.66;4901224;29;20192;-90
2024/01/31 07:17:56;;;;;;;47.83;21.60;;;;;;;-143.21;67.93;75619.63;4892531;29;20218;-89
2024/01/31 07:20:26;;;;;;;43.33;21.97;;;;;;;-143.21;67.74;75617.66;4900498;29;20214;-88
2024/01/31 07:23:00;;;;;;;47.23;23.33;;;;;;;-143.21;67.95;75607.72;4901463;29;20203;-90
2024/01/31 07:25:39;;;;;;;48.80;23.97;;;;;;;-143.21;67.90;75597.81;4896980;29;20223;-89
2024/01/31 07:28:09;;;;;;;51.27;23.30;;;;;;;-143.21;67.88;75589.88;4896307;29;20346;-89
2024/01/31 07:30:40;;;;;;;48.83;23.63;;;;;;;-143.21;68.03;75589.88;4888755;29;20214;-89
2024/01/31 07:33:07;;;;;;;47.20;22.93;;;;;;;-143.21;68.16;75589.88;4900374;29;20212;-90
2024/01/31 07:35:43;;;;;;;44.67;22.43;;;;;;;-143.21;68.02;75572.00;4897261;29;20204;-89
2024/01/31 07:38:16;;;;;;;44.17;22.30;;;;;;;-143.21;68.32;75568.03;4905239;23;20409;-90
2024/01/31 07:40:47;;;;;;;49.23;23.20;;;;;;;-143.21;68.18;75560.09;4905007;29;20683;-89
2024/01/31 07:43:14;;;;;;;46.67;22.83;;;;;;;-143.21;68.26;75558.09;4890836;29;20234;-90
2024/01/31 07:46:08;;;;;;;70.27;27.67;;;;;;;-143.21;68.34;75550.16;4902769;23;20243;-87
2024/01/31 07:48:43;;;;;;;55.00;23.80;;;;;;;-143.21;68.19;75550.16;4899500;23;20227;-89
2024/01/31 07:51:16;;;;;;;49.97;23.93;;;;;;;-143.21;68.25;75542.22;4865818;29;20204;-90
2024/01/31 07:53:43;;;;;;;53.00;22.93;;;;;;;-143.21;68.05;75538.25;4888615;23;20235;-90
2024/01/31 07:56:10;;;;;;;44.93;23.17;;;;;;;-143.21;67.87;75520.38;4895572;29;20226;-89
2024/01/31 07:58:38;;;;;;;46.90;24.33;;;;;;;-143.21;67.67;75516.41;4899533;29;20243;-89
2024/01/31 08:01:05;;;;;;;51.03;23.67;;;;;;;-143.21;67.50;75528.31;4886552;29;20221;-89
2024/01/31 08:03:34;;;;;;;49.73;23.70;;;;;;;-143.21;67.88;75548.19;4891994;29;20211;-90
2024/01/31 08:06:01;;;;;;;46.63;23.53;;;;;;;-143.21;68.13;75542.22;4895544;29;20226;-88
2024/01/31 08:08:29;;;;;;;51.47;24.80;;;;;;;-143.21;68.35;75526.34;4897363;29;20685;-89
2024/01/31 08:10:57;;;;;;;53.23;23.50;;;;;;;-143.21;68.27;75510.47;4899360;29;20211;-89
2024/01/31 08:13:25;;;;;;;50.40;23.90;;;;;;;-143.21;67.78;75500.53;4899757;29;20250;-88
2024/01/31 08:18:34;;;;;;;48.50;23.30;;;;;;;-143.21;67.61;75474.72;4895535;29;20218;-87
2024/01/31 08:21:02;;;;;;;49.87;24.30;;;;;;;-143.21;67.22;75462.81;4890057;29;20217;-88
2024/01/31 08:23:28;;;;;;;44.63;23.37;;;;;;;-143.21;67.11;75441.00;4894921;29;20207;-88
2024/01/31 08:25:58;;;;;;;56.50;23.63;;;;;;;-143.21;67.00;75446.94;4899673;29;20238;-91
2024/01/31 08:28:27;;;;;;;60.93;28.53;;;;;;;-143.21;67.83;75442.97;4906806;23;20242;-89
2024/01/31 08:30:54;;;;;;;66.30;30.53;;;;;;;-143.21;68.00;75433.03;4892450;29;20207;-88
2024/01/31 08:33:21;;;;;;;59.03;31.00;;;;;;;-143.21;67.42;75419.16;4897222;29;20314;-88
2024/01/31 08:35:49;;;;;;;63.57;29.23;;;;;;;-143.21;66.50;75403.28;4883064;29;20585;-90
2024/01/31 08:38:16;;;;;;;55.80;29.27;;;;;;;-143.21;67.74;75395.34;4895206;29;20199;-88
2024/01/31 08:40:43;;;;;;;65.00;30.73;;;;;;;-143.21;70.18;75369.53;4893771;29;20191;-90
2024/01/31 08:43:10;;;;;;;59.30;29.83;;;;;;;-143.21;70.30;75347.69;4895314;29;20750;-89
2024/01/31 08:45:36;;;;;;;68.70;29.93;;;;;;;-143.21;70.55;75325.88;4900034;23;20272;-88
2024/01/31 08:48:07;;;;;;;63.57;29.47;;;;;;;-143.21;68.42;75308.00;4866098;29;20273;-89
2024/01/31 08:50:44;;;;;;;57.43;27.57;;;;;;;-143.21;66.96;75288.16;4877588;29;20193;-92
2024/01/31 08:53:13;;;;;;;57.93;29.93;;;;;;;-143.21;66.17;75280.22;4876550;29;20238;-88
2024/01/31 08:55:39;;;;;;;59.87;29.17;;;;;;;-143.21;66.23;75270.28;4859790;29;20202;-88
2024/01/31 08:58:06;;;;;;;54.93;28.10;;;;;;;-143.21;66.67;75266.31;4873463;29;20258;-87
2024/01/31 09:00:36;;;;;;;55.30;27.07;;;;;;;-143.21;65.64;75252.41;4877831;29;20206;-90
2024/01/31 09:03:08;;;;;;;59.23;27.90;;;;;;;-143.21;64.41;75240.50;4885765;29;20220;-89
2024/01/31 09:05:35;;;;;;;52.50;27.67;;;;;;;-143.21;63.99;75244.47;4872918;29;20245;-89
2024/01/31 09:08:02;;;;;;;55.67;27.70;;;;;;;-143.21;64.05;75232.56;4879270;29;20208;-88
2024/01/31 09:10:32;;;;;;;60.73;28.00;;;;;;;-143.21;63.45;75224.63;4866887;29;20207;-89
2024/01/31 09:12:58;;;;;;;53.43;27.97;;;;;;;-143.21;62.76;75198.81;4877076;29;20216;-90
2024/01/31 09:15:34;;;;;;;59.50;28.37;;;;;;;-143.21;62.07;75188.91;4874290;29;20203;-91
2024/01/31 09:23:28;;;;;;;61.05;29.10;;;;;;;-143.21;61.98;75167.06;4913091;23;20264;-92
2024/01/31 09:26:07;;;;;;;;;;;;;;;;;;;;;
2024/01/31 09:28:41;;;;;;;61.97;29.30;;;;;;;-143.21;61.10;75153.19;4908293;23;20562;-91
2024/01/31 09:36:26;;;;;;;70.87;30.20;;;;;;;-143.21;62.63;75169.06;4904760;23;20273;-91
2024/01/31 09:39:05;;;;;;;63.67;30.77;;;;;;;-143.21;62.58;75212.72;4887435;29;20214;-92
2024/01/31 09:41:35;;;;;;;64.23;29.80;;;;;;;-143.21;64.93;75266.31;4888046;29;20226;-91
2024/01/31 09:44:04;;;;;;;60.40;30.37;;;;;;;-143.21;67.03;75282.19;4889693;29;20228;-90
2024/01/31 09:46:32;;;;;;;58.90;30.80;;;;;;;-143.21;69.60;75194.88;4884055;29;20234;-92
2024/01/31 09:51:44;;;;;;;58.80;29.03;;;;;;;-143.21;56.04;74803.88;4884853;29;20257;-91
2024/01/31 09:54:12;;;;;;;59.97;29.77;;;;;;;-143.21;52.28;74712.59;4895805;29;20221;-90
2024/01/31 09:56:42;;;;;;;53.70;29.03;;;;;;;-143.21;49.64;74662.97;4891211;29;20200;-92
2024/01/31 09:59:14;;;;;;;60.17;29.50;;;;;;;-143.21;49.50;74601.44;4887452;29;20207;-91
2024/01/31 10:01:43;;;;;;;56.30;28.87;;;;;;;-143.21;46.80;74526.03;4875067;29;20204;-91
2024/01/31 10:04:10;;;;;;;59.90;28.83;;;;;;;-143.21;44.49;74434.75;4886630;29;20788;-91
2024/01/31 10:06:39;;;;;;;57.73;29.50;;;;;;;-143.21;41.90;74321.66;4886607;29;20303;-92
2024/01/31 10:09:15;;;;;;;51.20;27.73;;;;;;;-143.21;40.10;74226.41;4888249;29;20210;-91
2024/01/31 10:12:17;;;;;;;;;;;;;;;;;;;;;
2024/01/31 10:14:55;;;;;;;54.53;29.17;;;;;;;-143.21;38.52;74164.91;4887137;29;20297;-90
2024/01/31 10:17:23;;;;;;;64.70;30.30;;;;;;;-143.21;39.25;74200.63;4887316;29;20230;-92
2024/01/31 10:20:04;;;;;;;60.43;28.20;;;;;;;-143.21;39.15;74204.59;4889037;29;20547;-91
2024/01/31 10:22:36;;;;;;;50.20;27.80;;;;;;;-143.21;38.95;74210.53;4886311;29;20214;-92
2024/01/31 10:25:18;;;;;;;54.00;27.90;;;;;;;-143.21;39.15;74164.91;4889213;29;20210;-91
2024/01/31 10:27:51;;;;;;;54.97;29.93;;;;;;;-143.21;37.43;74055.75;4875661;29;20699;-91
2024/01/31 10:30:18;;;;;;;56.10;30.27;;;;;;;-143.21;35.88;73956.56;4894368;29;20199;-91
2024/01/31 10:32:47;;;;;;;56.77;30.43;;;;;;;-143.21;35.25;73889.09;4888861;29;20211;-90
2024/01/31 10:35:16;;;;;;;51.63;30.47;;;;;;;-143.21;34.51;73843.47;4894638;29;20255;-90
2024/01/31 10:37:44;;;;;;;58.77;30.67;;;;;;;-143.21;34.53;73833.53;4887136;29;20226;-91
2024/01/31 10:43:11;;;;;;;54.50;30.10;;;;;;;-143.21;33.65;73778.00;4894443;29;20291;-90
2024/01/31 10:45:55;;;;;;;;;;;;;;;;;;;;;
2024/01/31 10:54:05;;;;;;;55.00;30.33;;;;;;;-143.21;32.27;73655.00;4902216;23;20238;-92
2024/01/31 10:56:37;;;;;;;60.00;31.07;;;;;;;-143.21;31.66;73623.25;4903008;29;20210;-93
2024/01/31 10:59:16;;;;;;;58.50;29.47;;;;;;;-143.21;31.02;73609.34;4902424;29;20211;-90
2024/01/31 11:05:01;;;;;;;43.27;26.63;;;;;;;-143.21;30.88;73575.63;4910653;29;20200;-90
2024/01/31 11:10:20;;;;;;;51.70;27.30;;;;;;;-143.21;30.84;73551.81;4887009;29;20239;-91
2024/01/31 11:13:30;;;;;;;50.60;27.63;;;;;;;-143.21;30.27;73494.28;4873406;29;20248;-90
2024/01/31 11:16:20;;;;;;;;;;;;;;;;;;;;;
2024/01/31 11:21:49;;;;;;;44.57;24.67;;;;;;;-143.21;27.29;73135.25;4828055;29;20225;-90
2024/01/31 11:24:25;;;;;;;43.60;25.60;;;;;;;-143.21;26.49;73045.97;4891938;29;20219;-90
2024/01/31 11:27:29;;;;;;;42.20;25.20;;;;;;;-143.21;26.17;72934.91;4908777;23;20236;-90
2024/01/31 11:30:22;;;;;;;42.47;26.00;;;;;;;-143.21;25.77;72909.13;4897589;23;20267;-90
2024/01/31 11:32:51;;;;;;;43.17;26.07;;;;;;;-143.21;25.79;72917.06;4895643;23;20235;-90
2024/01/31 11:35:28;;;;;;;;;;;;;;;;;;;;;
2024/01/31 11:38:00;;;;;;;40.00;25.53;;;;;;;-143.21;25.28;72819.84;4898417;29;20701;-91
2024/01/31 11:43:17;;;;;;;39.53;23.20;;;;;;;-143.21;24.45;72805.97;4872380;29;20257;-92
2024/01/31 11:45:44;;;;;;;43.27;23.40;;;;;;;-143.21;24.27;72805.97;4871905;29;20692;-90
2024/01/31 11:51:20;;;;;;;39.63;23.23;;;;;;;-143.21;24.05;72770.28;4908463;29;20203;-90
2024/01/31 11:56:28;;;;;;;39.85;23.10;;;;;;;-143.21;24.05;72694.91;4908099;23;20230;-90
2024/01/31 11:59:03;;;;;;;41.63;24.38;;;;;;;-143.21;23.40;72688.94;4897355;29;20237;-90
2024/01/31 12:01:34;;;;;;;40.20;24.25;;;;;;;-143.21;23.72;72665.16;4904336;29;20200;-90
2024/01/31 12:04:03;;;;;;;39.17;25.13;;;;;;;-143.21;23.65;72659.19;4904088;29;20239;-90
2024/01/31 12:06:31;;;;;;;44.03;24.63;;;;;;;-143.21;23.46;72643.34;4918871;29;20213;-89
2024/01/31 12:09:06;;;;;;;40.47;23.95;;;;;;;-143.21;23.20;72641.34;4889657;29;20222;-90
2024/01/31 12:11:36;;;;;;;38.30;23.17;;;;;;;-143.21;23.03;72605.66;4893940;29;20239;-90
2024/01/31 12:14:03;;;;;;;37.20;23.80;;;;;;;-143.21;22.90;72587.81;4906348;29;20401;-90
2024/01/31 12:16:49;;;;;;;41.60;24.33;;;;;;;-143.21;22.77;72562.03;4915383;29;20213;-90
2024/01/31 12:19:24;;;;;;;38.55;23.33;;;;;;;-143.21;22.85;72538.22;4898854;29;20203;-90
2024/01/31 12:24:46;;;;;;;38.45;22.00;;;;;;;-143.21;22.32;72468.81;4930543;29;20478;-90
2024/01/31 12:27:15;;;;;;;41.25;23.98;;;;;;;-143.21;22.52;72496.56;4922983;29;20251;-89
2024/01/31 12:29:46;;;;;;;40.22;23.27;;;;;;;-143.21;22.14;72478.72;4928113;29;20207;-90
2024/01/31 12:32:18;;;;;;;45.80;22.52;;;;;;;-143.21;22.01;72460.88;4928018;29;20214;-89
2024/01/31 12:37:45;;;;;;;39.60;23.70;;;;;;;-143.21;22.10;72454.91;4924610;23;20261;-91
2024/01/31 12:47:49;;;;;;;38.80;25.35;;;;;;;-143.21;22.09;72427.16;4884688;23;20583;-92
2024/01/31 12:53:48;;;;;;;48.33;24.33;;;;;;;-143.21;21.99;72468.81;4898668;23;20246;-93
2024/01/31 13:18:45;;;;;;;39.35;23.00;;;;;;;-143.21;22.08;72536.25;5127287;22;20222;-93
2024/01/31 13:21:12;;;;;;;48.28;23.20;;;;;;;-143.21;22.23;72508.47;5136250;27;20214;-92
2024/01/31 13:26:11;;;;;;;42.40;26.40;;;;;;;-143.21;21.85;72425.19;5164460;22;20234;-92
2024/01/31 13:28:40;;;;;;;37.17;23.42;;;;;;;-143.21;21.59;72391.47;5146995;22;20294;-92
2024/01/31 13:31:29;;;;;;;48.00;25.55;;;;;;;-143.21;21.54;72353.78;5145248;27;20207;-93
2024/01/31 13:51:42;;;;;;;50.03;26.30;;;;;;;-143.21;21.41;72322.06;5189807;22;20234;-93
2024/01/31 14:30:44;;;;;;;73.00;33.63;;;;;;;-143.21;28.15;73422.88;5032169;22;20330;-94
2024/01/31 15:04:45;;;;;;;73.03;27.87;;;;;;;-143.21;33.91;73895.06;5025496;22;20616;-93
2024/01/31 15:07:12;;;;;;;65.20;28.13;;;;;;;-143.21;34.32;73918.88;4986017;28;20429;-92
2024/01/31 15:13:55;;;;;;;62.13;28.40;;;;;;;-143.21;34.98;73968.47;4974420;22;20304;-90
2024/01/31 15:16:32;;;;;;;79.50;28.43;;;;;;;-143.21;35.16;73978.38;5050478;22;20231;-91
2024/01/31 15:19:15;;;;;;;73.57;26.87;;;;;;;-143.21;35.26;73984.34;5029649;23;20294;-91
2024/01/31 15:24:44;;;;;;;74.17;28.33;;;;;;;-143.21;35.93;74020.06;5061326;28;20690;-92
2024/01/31 15:27:12;;;;;;;61.13;28.37;;;;;;;-143.21;36.18;74039.88;5049795;28;20194;-91
2024/01/31 15:29:39;;;;;;;65.70;29.00;;;;;;;-143.21;36.42;74045.84;5055238;28;20201;-93
2024/01/31 15:32:06;;;;;;;80.13;29.30;;;;;;;-143.21;36.21;74063.69;5052959;28;20229;-91
2024/01/31 15:34:40;;;;;;;65.70;29.07;;;;;;;-143.21;36.40;74077.59;5050475;28;20266;-90
2024/01/31 15:37:07;;;;;;;77.97;28.87;;;;;;;-143.21;36.87;74071.63;5052962;28;20229;-91
2024/01/31 15:39:34;;;;;;;66.77;28.83;;;;;;;-143.21;36.79;74071.63;5034267;28;20191;-90
2024/01/31 15:42:01;;;;;;;66.50;28.07;;;;;;;-143.21;36.95;74069.66;5033651;28;20221;-89
2024/01/31 15:44:47;;;;;;;90.80;29.37;;;;;;;-143.21;37.51;74083.53;5033345;28;20231;-90
2024/01/31 15:47:16;;;;;;;83.80;30.80;;;;;;;-143.21;37.38;74085.53;5033897;28;20230;-90
2024/01/31 15:49:50;;;;;;;74.70;30.53;;;;;;;-143.21;38.00;74099.41;5033875;28;20286;-89
2024/01/31 15:52:17;;;;;;;87.43;32.37;;;;;;;-143.21;38.45;74107.34;5031755;28;20202;-88
2024/01/31 15:54:54;;;;;;;96.00;36.00;;;;;;;-143.21;38.17;74145.06;5030507;28;20202;-89